Gloucester, Massachusetts
Current Conditions -  °F | °C
As of 6:14 AM on Thursday 23 Oct 2014 (Local Time) from KBVY Reporting Station
Heavy Rain Heavy Rain  
Wind Chill: 51°   Ceiling: 1700
Heat Index: 51°   Visibility: 1mi
Dew Point: 48°   Wind: 13mph
Humidity: 89%   Direction: 30°NNE
Pressure: 29.71"   Gusts: 37mph
Location:  42.61°N, 70.67°W
Report Text: KBVY 231014Z AUTO 03011G32KT 1SM +RA BR SCT008 OVC017 11/09 A2971 RMK AO2 PK WND 36032/1006 P0048 T01060089
Loading
Personal Weather Stations






























Interactive Weather Map
Tropical Storm Tracking
New forecast layout! Learn more

10-Day Weather Forecast

Advertisements
Track Severe Weather on mobile